Amonate, Virginia
Current Conditions -  °F | °C
As of 4:35 PM on Wednesday 17 Dec 2014 (Local Time) from KJFZ Reporting Station
Clear Clear  
Wind Chill: 36°   Ceiling: Unl
Heat Index: 40°   Visibility: 10mi
Dew Point: 24°   Wind: 6mph
Humidity: 53%   Direction: 300°WNW
Pressure: 30.08"   Gusts: NA
Location:  37.19°N, 81.64°W
Report Text: KJFZ 172135Z AUTO 30005KT 10SM CLR 05/M04 A3008 RMK AO2 T00451043
Loading
Personal Weather Stations






























Interactive Weather Map New forecast layout! Learn more

10-Day Weather Forecast

Advertisements
Track Severe Weather on mobile